createdAt,value
2022-10-19T00:00:49.089Z,102065.91
2022-10-19T00:03:20.696Z,102062.59
2022-10-19T00:05:50.351Z,102053.00
2022-10-19T00:08:17.583Z,102057.59
2022-10-19T00:10:44.698Z,102054.34
2022-10-19T00:13:11.834Z,102058.47
2022-10-19T00:15:40.443Z,102063.09
2022-10-19T00:18:08.557Z,102064.97
2022-10-19T00:20:36.941Z,102066.25
2022-10-19T00:23:04.471Z,102063.75
2022-10-19T00:25:31.955Z,102061.84
2022-10-19T00:27:59.074Z,102062.81
2022-10-19T00:30:26.176Z,102060.50
2022-10-19T00:32:53.296Z,102054.56
2022-10-19T00:35:20.403Z,102057.69
2022-10-19T00:37:47.517Z,102059.59
2022-10-19T00:40:14.623Z,102053.25
2022-10-19T00:42:41.798Z,102059.41
2022-10-19T00:45:15.667Z,102049.47
2022-10-19T00:47:44.868Z,102047.50
2022-10-19T00:50:14.302Z,102048.59
2022-10-19T00:52:41.859Z,102051.59
2022-10-19T00:55:10.810Z,102047.22
2022-10-19T00:57:38.312Z,102043.06
2022-10-19T01:00:07.260Z,102044.16
2022-10-19T01:02:35.342Z,102045.09
2022-10-19T01:05:03.935Z,102045.03
2022-10-19T01:07:31.728Z,102046.75
2022-10-19T01:10:00.195Z,102035.19
2022-10-19T01:13:18.123Z,102031.50
2022-10-19T01:16:23.252Z,102031.56
2022-10-19T01:18:58.003Z,102030.88
2022-10-19T01:21:29.017Z,102024.53
2022-10-19T01:24:18.010Z,102025.38
2022-10-19T01:27:05.376Z,102024.72
2022-10-19T01:30:03.100Z,102018.69
2022-10-19T01:32:57.076Z,102014.63
2022-10-19T01:35:43.590Z,102012.16
2022-10-19T01:38:17.639Z,102006.34
2022-10-19T01:40:55.254Z,102008.47
2022-10-19T01:43:31.207Z,102010.81
2022-10-19T01:46:09.253Z,102007.28
2022-10-19T01:48:40.970Z,102006.53
2022-10-19T01:51:17.326Z,102008.06
2022-10-19T01:53:49.480Z,102000.81
2022-10-19T01:56:19.926Z,102006.03
2022-10-19T01:58:48.775Z,101998.59
2022-10-19T02:01:19.860Z,101993.84
2022-10-19T02:03:50.131Z,102001.66
2022-10-19T02:06:18.282Z,101989.06
2022-10-19T02:08:48.815Z,101995.00
2022-10-19T02:11:17.880Z,101989.59
2022-10-19T02:13:48.943Z,101989.53
2022-10-19T02:16:25.086Z,101986.53
2022-10-19T02:18:54.939Z,101981.16
2022-10-19T02:21:22.549Z,101980.19
2022-10-19T02:23:51.906Z,101986.19
2022-10-19T02:26:22.140Z,101989.41
2022-10-19T02:28:50.427Z,101982.09
2022-10-19T02:31:17.670Z,101966.94
2022-10-19T02:33:45.027Z,101975.09
2022-10-19T02:36:12.539Z,101969.75
2022-10-19T02:38:40.784Z,101966.13
2022-10-19T02:41:23.037Z,101964.50
2022-10-19T02:43:56.942Z,101967.25
2022-10-19T02:46:31.921Z,101961.09
2022-10-19T02:49:01.054Z,101959.69
2022-10-19T02:51:36.932Z,101958.06
2022-10-19T02:54:06.090Z,101954.69
2022-10-19T02:56:35.189Z,101952.47
2022-10-19T02:59:03.344Z,101955.63
2022-10-19T03:01:30.526Z,101954.13
2022-10-19T03:03:57.647Z,101957.72
2022-10-19T03:06:24.853Z,101967.91
2022-10-19T03:08:52.026Z,101968.91
2022-10-19T03:11:19.221Z,101963.91
2022-10-19T03:16:18.458Z,101968.69
2022-10-19T03:18:48.930Z,101965.25
2022-10-19T03:21:16.382Z,101977.69
2022-10-19T03:23:43.540Z,101976.97
2022-10-19T03:26:15.022Z,101970.97
2022-10-19T03:28:42.526Z,101974.78
2022-10-19T03:31:09.786Z,101977.50
2022-10-19T03:33:36.899Z,101975.66
2022-10-19T03:36:24.357Z,101973.00
2022-10-19T03:38:53.538Z,101966.88
2022-10-19T03:41:22.082Z,101962.50
2022-10-19T03:43:49.436Z,101964.50
2022-10-19T03:46:16.883Z,101961.16
2022-10-19T03:48:44.114Z,101962.19
2022-10-19T03:51:16.912Z,101962.28
2022-10-19T03:53:45.314Z,101957.97
2022-10-19T03:56:15.031Z,101964.16
2022-10-19T03:58:43.987Z,101967.75
2022-10-19T04:01:14.491Z,101977.56
2022-10-19T04:03:42.104Z,101972.22
2022-10-19T04:06:14.817Z,101976.75
2022-10-19T04:08:44.590Z,101969.97
2022-10-19T04:11:14.867Z,101974.34
2022-10-19T04:13:41.977Z,101976.75
2022-10-19T04:16:13.278Z,101970.69
2022-10-19T04:18:40.479Z,101974.19
2022-10-19T04:21:07.658Z,101983.03
2022-10-19T04:23:36.106Z,101976.00
2022-10-19T04:26:07.962Z,101976.00
2022-10-19T04:28:35.180Z,101976.84
2022-10-19T04:31:06.208Z,101971.38
2022-10-19T04:33:34.414Z,101968.09
2022-10-19T04:36:07.309Z,101969.97
2022-10-19T04:38:35.063Z,101978.00
2022-10-19T04:41:08.259Z,101968.41
2022-10-19T04:43:36.070Z,101972.91
2022-10-19T04:46:09.212Z,101970.25
2022-10-19T04:48:37.823Z,101966.75
2022-10-19T04:51:05.339Z,101962.31
2022-10-19T04:53:33.057Z,101967.00
2022-10-19T04:56:00.562Z,101967.09
2022-10-19T04:58:27.642Z,101963.28
2022-10-19T05:00:54.809Z,101957.22
2022-10-19T05:03:21.911Z,101951.03
2022-10-19T05:05:49.754Z,101953.50
2022-10-19T05:08:17.203Z,101950.72
2022-10-19T05:10:47.659Z,101949.19
2022-10-19T05:13:14.983Z,101949.06
2022-10-19T05:15:42.142Z,101952.75
2022-10-19T05:18:09.232Z,101958.53
2022-10-19T05:20:36.347Z,101947.28
2022-10-19T05:23:06.426Z,101946.88
2022-10-19T05:25:34.595Z,101943.66
2022-10-19T05:28:01.683Z,101956.25
2022-10-19T05:30:28.882Z,101941.94
2022-10-19T05:32:56.038Z,101939.56
2022-10-19T05:35:23.165Z,101947.16
2022-10-19T05:37:55.154Z,101944.03
2022-10-19T05:40:22.271Z,101953.50
2022-10-19T05:42:49.327Z,101939.81
2022-10-19T05:45:16.421Z,101944.75
2022-10-19T05:47:43.502Z,101950.78
2022-10-19T05:50:10.577Z,101950.44
2022-10-19T05:52:37.666Z,101954.59
2022-10-19T05:55:05.372Z,101955.03
2022-10-19T05:57:33.192Z,101962.88
2022-10-19T06:00:00.603Z,101966.97
2022-10-19T06:02:27.699Z,101961.44
2022-10-19T06:04:54.820Z,101959.72
2022-10-19T06:07:21.885Z,101968.00
2022-10-19T06:09:48.979Z,101968.00
2022-10-19T06:12:20.449Z,101969.72
2022-10-19T06:14:52.816Z,101961.44
2022-10-19T06:17:19.908Z,101966.41
2022-10-19T06:19:47.018Z,101964.72
2022-10-19T06:22:14.151Z,101966.25
2022-10-19T06:24:41.237Z,101967.44
2022-10-19T06:27:08.388Z,101968.59
2022-10-19T06:29:35.680Z,101972.63
2022-10-19T06:32:03.666Z,101977.50
2022-10-19T06:34:30.974Z,101981.19
2022-10-19T06:36:58.211Z,101981.66
2022-10-19T06:39:25.356Z,101983.06
2022-10-19T06:41:52.459Z,101989.00
2022-10-19T06:44:19.747Z,101995.34
2022-10-19T06:46:46.952Z,101999.72
2022-10-19T06:49:14.709Z,102000.00
2022-10-19T06:51:41.946Z,101989.97
2022-10-19T06:54:09.263Z,102000.16
2022-10-19T06:56:36.470Z,101995.84
2022-10-19T06:59:03.682Z,101998.50
2022-10-19T07:01:31.085Z,102003.38
2022-10-19T07:03:58.214Z,102006.66
2022-10-19T07:06:26.914Z,102011.44
2022-10-19T07:08:54.046Z,102013.75
2022-10-19T07:11:22.424Z,102013.31
2022-10-19T07:13:50.394Z,102019.63
2022-10-19T07:16:20.968Z,102013.69
2022-10-19T07:18:50.783Z,102019.06
2022-10-19T07:21:18.951Z,102022.97
2022-10-19T07:23:47.415Z,102024.06
2022-10-19T07:26:27.417Z,102015.53
2022-10-19T07:28:57.838Z,102019.25
2022-10-19T07:31:26.679Z,102019.53
2022-10-19T07:33:56.135Z,102017.53
2022-10-19T07:36:24.638Z,102015.91
2022-10-19T07:38:52.289Z,102015.81
2022-10-19T07:41:21.807Z,102023.28
2022-10-19T07:43:51.136Z,102031.19
2022-10-19T07:46:25.352Z,102022.09
2022-10-19T07:48:53.383Z,102022.06
2022-10-19T07:51:21.670Z,102014.63
2022-10-19T07:53:49.129Z,102017.41
2022-10-19T07:56:21.497Z,102021.00
2022-10-19T07:58:50.701Z,102018.22
2022-10-19T08:01:23.899Z,102014.06
2022-10-19T08:06:42.550Z,102013.06
2022-10-19T08:09:11.464Z,102012.81
2022-10-19T08:11:42.791Z,102005.72
2022-10-19T08:14:09.912Z,102004.13
2022-10-19T08:16:44.155Z,102004.81
2022-10-19T08:19:13.492Z,102001.88
2022-10-19T08:21:43.607Z,101999.25
2022-10-19T08:24:13.290Z,101999.09
2022-10-19T08:26:41.054Z,102001.03
2022-10-19T08:29:19.610Z,101993.31
2022-10-19T08:31:48.193Z,101997.94
2022-10-19T08:34:16.330Z,101998.59
2022-10-19T08:36:43.543Z,102005.94
2022-10-19T08:39:12.650Z,102006.25
2022-10-19T08:41:39.739Z,102001.88
2022-10-19T08:44:15.848Z,102008.31
2022-10-19T08:47:23.310Z,102005.16
2022-10-19T08:49:51.401Z,102005.19
2022-10-19T08:52:29.586Z,102004.47
2022-10-19T08:55:08.985Z,102000.34
2022-10-19T08:58:13.510Z,101995.34
2022-10-19T09:00:50.142Z,101993.63
2022-10-19T09:03:37.827Z,101992.16
2022-10-19T09:06:34.198Z,101987.47
2022-10-19T09:09:01.439Z,101994.97
2022-10-19T09:11:38.508Z,101985.50
2022-10-19T09:14:14.900Z,101990.72
2022-10-19T09:16:42.720Z,101993.38
2022-10-19T09:19:25.597Z,101994.72
2022-10-19T09:21:57.363Z,101988.59
2022-10-19T09:24:29.765Z,101980.16
2022-10-19T09:27:00.801Z,101982.03
2022-10-19T09:29:40.086Z,101978.66
2022-10-19T09:32:33.538Z,101983.81
2022-10-19T09:35:22.282Z,101979.50
2022-10-19T09:37:51.198Z,101973.06
2022-10-19T09:40:25.284Z,101968.56
2022-10-19T09:42:57.346Z,101968.41
2022-10-19T09:45:47.774Z,101960.66
2022-10-19T09:48:23.811Z,101968.06
2022-10-19T09:51:00.128Z,101975.16
2022-10-19T09:53:29.218Z,101969.91
2022-10-19T09:56:02.876Z,101977.41
2022-10-19T09:58:32.946Z,101975.59
2022-10-19T10:01:02.477Z,101969.53
2022-10-19T10:03:43.566Z,101973.38
2022-10-19T10:06:15.296Z,101962.94
2022-10-19T10:08:48.518Z,101975.31
2022-10-19T10:11:22.706Z,101974.31
2022-10-19T10:13:52.786Z,101971.44
2022-10-19T10:16:24.850Z,101967.72
2022-10-19T10:18:56.913Z,101964.94
2022-10-19T10:21:27.038Z,101962.41
2022-10-19T10:24:02.976Z,101961.22
2022-10-19T10:26:30.149Z,101955.22
2022-10-19T10:29:00.662Z,101952.66
2022-10-19T10:31:30.157Z,101957.69
2022-10-19T10:34:10.963Z,101954.97
2022-10-19T10:36:53.635Z,101947.94
2022-10-19T10:39:20.852Z,101942.97
2022-10-19T10:41:49.021Z,101943.91
2022-10-19T10:44:26.487Z,101943.28
2022-10-19T10:47:00.115Z,101938.78
2022-10-19T10:49:35.551Z,101936.00
2022-10-19T10:52:10.746Z,101927.72
2022-10-19T10:54:38.811Z,101934.63
2022-10-19T10:57:16.647Z,101923.13
2022-10-19T10:59:51.881Z,101918.06
2022-10-19T11:02:27.797Z,101911.16
2022-10-19T11:05:11.742Z,101908.41
2022-10-19T11:07:44.157Z,101914.16
2022-10-19T11:10:26.666Z,101904.06
2022-10-19T11:13:18.313Z,101893.06
2022-10-19T11:16:06.699Z,101900.31
2022-10-19T11:18:46.063Z,101894.75
2022-10-19T11:21:24.063Z,101888.69
2022-10-19T11:24:16.526Z,101893.44
2022-10-19T11:27:18.407Z,101895.13
2022-10-19T11:29:57.625Z,101888.59
2022-10-19T11:32:35.112Z,101876.69
2022-10-19T11:35:17.432Z,101874.84
2022-10-19T11:38:17.398Z,101868.72
2022-10-19T11:41:26.403Z,101867.56
2022-10-19T11:44:20.753Z,101861.88
2022-10-19T11:47:14.058Z,101864.22
2022-10-19T11:49:50.255Z,101853.81
2022-10-19T11:52:46.278Z,101853.50
2022-10-19T11:55:40.809Z,101851.72
2022-10-19T11:58:38.102Z,101849.50
2022-10-19T12:01:23.722Z,101839.84
2022-10-19T12:04:11.010Z,101842.63
2022-10-19T12:06:43.826Z,101840.13
2022-10-19T12:09:35.425Z,101824.78
2022-10-19T12:12:19.522Z,101829.06
2022-10-19T12:14:51.607Z,101830.22
2022-10-19T12:17:26.399Z,101818.47
2022-10-19T12:19:59.501Z,101817.34
2022-10-19T12:22:28.317Z,101814.09
2022-10-19T12:24:59.669Z,101809.56
2022-10-19T12:27:47.672Z,101806.66
2022-10-19T12:30:23.563Z,101797.91
2022-10-19T12:33:14.606Z,101797.53
2022-10-19T12:35:59.639Z,101798.56
2022-10-19T12:38:40.892Z,101801.41
2022-10-19T12:42:00.947Z,101789.97
2022-10-19T12:44:39.791Z,101784.50
2022-10-19T12:47:11.852Z,101787.06
2022-10-19T12:49:45.786Z,101782.31
2022-10-19T12:52:15.275Z,101770.13
2022-10-19T12:54:43.970Z,101768.78
2022-10-19T12:57:29.959Z,101766.59
2022-10-19T13:00:04.241Z,101766.97
2022-10-19T13:02:35.597Z,101763.16
2022-10-19T13:05:04.358Z,101761.81
2022-10-19T13:07:36.056Z,101756.03
2022-10-19T13:10:06.894Z,101759.06
2022-10-19T13:12:46.286Z,101756.03
2022-10-19T13:15:39.384Z,101755.88
2022-10-19T13:18:13.971Z,101749.13
2022-10-19T13:20:50.268Z,101748.78
2022-10-19T13:23:17.649Z,101747.25
2022-10-19T13:25:44.814Z,101736.91
2022-10-19T13:28:17.790Z,101737.25
2022-10-19T13:30:44.878Z,101739.47
2022-10-19T13:33:28.435Z,101725.88
2022-10-19T13:35:58.325Z,101732.84
2022-10-19T13:38:26.327Z,101722.16
2022-10-19T13:41:25.559Z,101717.41
2022-10-19T13:44:01.723Z,101718.09
2022-10-19T13:46:28.780Z,101714.56
2022-10-19T13:48:58.701Z,101717.22
2022-10-19T13:51:46.634Z,101710.97
2022-10-19T13:54:37.882Z,101704.34
2022-10-19T13:57:24.002Z,101717.91
2022-10-19T14:00:15.756Z,101704.03
2022-10-19T14:03:22.429Z,101703.72
2022-10-19T14:06:13.256Z,101701.81
2022-10-19T14:09:21.493Z,101698.44
2022-10-19T14:11:52.652Z,101700.81
2022-10-19T14:14:24.253Z,101694.47
2022-10-19T14:17:03.065Z,101688.66
2022-10-19T14:19:43.710Z,101695.47
2022-10-19T14:22:37.231Z,101679.44
2022-10-19T14:25:16.120Z,101683.84
2022-10-19T14:27:43.571Z,101689.22
2022-10-19T14:30:25.458Z,101692.38
2022-10-19T14:32:56.836Z,101696.84
2022-10-19T14:35:38.273Z,101687.59
2022-10-19T14:38:08.481Z,101686.59
2022-10-19T14:40:41.068Z,101681.31
2022-10-19T14:43:31.582Z,101683.53
2022-10-19T14:46:07.558Z,101678.47
2022-10-19T14:48:36.540Z,101674.41
2022-10-19T14:51:09.941Z,101678.25
2022-10-19T14:53:42.501Z,101672.81
2022-10-19T14:56:21.183Z,101667.53
2022-10-19T14:59:02.660Z,101678.50
2022-10-19T15:01:30.058Z,101667.31
2022-10-19T15:03:57.352Z,101663.19
2022-10-19T15:06:29.983Z,101664.84
2022-10-19T15:09:03.830Z,101666.47
2022-10-19T15:11:37.071Z,101669.63
2022-10-19T15:14:12.007Z,101676.69
2022-10-19T15:16:39.115Z,101664.69
2022-10-19T15:19:18.318Z,101669.00
2022-10-19T15:22:05.544Z,101664.34
2022-10-19T15:24:32.714Z,101662.03
2022-10-19T15:27:19.216Z,101666.00
2022-10-19T15:29:57.019Z,101667.13
2022-10-19T15:32:29.566Z,101663.88
2022-10-19T15:34:56.742Z,101669.13
2022-10-19T15:39:56.906Z,101676.69
2022-10-19T15:42:36.694Z,101676.09
2022-10-19T15:45:24.986Z,101668.50
2022-10-19T15:48:20.930Z,101671.00
2022-10-19T15:50:50.335Z,101665.44
2022-10-19T15:53:18.990Z,101670.34
2022-10-19T15:55:46.334Z,101668.84
2022-10-19T15:58:14.263Z,101661.50
2022-10-19T16:00:41.891Z,101658.44
2022-10-19T16:03:09.209Z,101658.44
2022-10-19T16:05:36.638Z,101663.72
2022-10-19T16:10:37.279Z,101663.91
2022-10-19T16:13:04.510Z,101665.38
2022-10-19T16:15:31.659Z,101665.06
2022-10-19T16:18:00.005Z,101665.38
2022-10-19T16:20:29.185Z,101654.84
2022-10-19T16:22:56.944Z,101662.22
2022-10-19T16:25:24.411Z,101664.34
2022-10-19T16:27:51.579Z,101662.34
2022-10-19T16:30:18.865Z,101661.19
2022-10-19T16:32:48.531Z,101678.88
2022-10-19T16:35:15.806Z,101672.75
2022-10-19T16:37:42.993Z,101674.56
2022-10-19T16:40:10.454Z,101672.56
2022-10-19T16:42:37.910Z,101672.47
2022-10-19T16:45:05.561Z,101670.63
2022-10-19T16:47:32.687Z,101667.59
2022-10-19T16:50:01.510Z,101673.25
2022-10-19T16:52:31.386Z,101667.56
2022-10-19T16:54:59.719Z,101677.41
2022-10-19T16:57:26.918Z,101675.50
2022-10-19T16:59:54.397Z,101683.38
2022-10-19T17:02:22.210Z,101686.00
2022-10-19T17:04:49.347Z,101690.19
2022-10-19T17:07:16.742Z,101695.22
2022-10-19T17:09:44.034Z,101699.25
2022-10-19T17:12:11.697Z,101696.72
2022-10-19T17:14:40.834Z,101698.91
2022-10-19T17:17:09.513Z,101703.44
2022-10-19T17:19:37.334Z,101705.25
2022-10-19T17:22:05.410Z,101706.13
2022-10-19T17:24:32.754Z,101700.75
2022-10-19T17:27:02.814Z,101705.53
2022-10-19T17:29:30.049Z,101704.06
2022-10-19T17:31:58.062Z,101708.38
2022-10-19T17:34:25.372Z,101710.69
2022-10-19T17:36:52.472Z,101707.69
2022-10-19T17:39:25.733Z,101706.22
2022-10-19T17:42:01.204Z,101703.19
2022-10-19T17:44:29.954Z,101707.38
2022-10-19T17:46:57.129Z,101709.66
2022-10-19T17:49:24.306Z,101711.16
2022-10-19T17:51:53.183Z,101723.22
2022-10-19T17:54:20.598Z,101713.59
2022-10-19T17:56:47.754Z,101713.72
2022-10-19T17:59:15.016Z,101716.16
2022-10-19T18:01:42.159Z,101721.78
2022-10-19T18:04:09.346Z,101723.84
2022-10-19T18:06:38.199Z,101718.47
2022-10-19T18:09:08.130Z,101715.56
2022-10-19T18:11:43.734Z,101724.56
2022-10-19T18:14:12.487Z,101716.25
2022-10-19T18:16:45.449Z,101728.06
2022-10-19T18:19:16.911Z,101727.94
2022-10-19T18:21:46.035Z,101733.09
2022-10-19T18:24:19.181Z,101731.09
2022-10-19T18:26:47.997Z,101734.50
2022-10-19T18:29:17.815Z,101735.59
2022-10-19T18:31:49.054Z,101740.13
2022-10-19T18:34:16.283Z,101741.94
2022-10-19T18:36:44.254Z,101733.28
2022-10-19T18:39:13.312Z,101745.22
2022-10-19T18:41:41.287Z,101739.13
2022-10-19T18:44:11.405Z,101742.03
2022-10-19T18:46:38.968Z,101736.06
2022-10-19T18:49:08.346Z,101731.06
2022-10-19T18:51:36.046Z,101731.16
2022-10-19T18:54:03.621Z,101729.97
2022-10-19T18:56:30.793Z,101730.31
2022-10-19T18:58:57.887Z,101736.25
2022-10-19T19:01:27.232Z,101740.97
2022-10-19T19:04:04.294Z,101735.13
2022-10-19T19:06:33.053Z,101740.81
2022-10-19T19:09:02.082Z,101733.16
2022-10-19T19:11:35.848Z,101735.25
2022-10-19T19:14:13.739Z,101741.69
2022-10-19T19:16:43.246Z,101744.59
2022-10-19T19:19:13.240Z,101745.00
2022-10-19T19:21:43.836Z,101741.41
2022-10-19T19:24:17.104Z,101742.44
2022-10-19T19:26:48.285Z,101749.59
2022-10-19T19:29:16.694Z,101749.78
2022-10-19T19:31:44.234Z,101752.44
2022-10-19T19:34:11.710Z,101754.16
2022-10-19T19:39:15.597Z,101755.28
2022-10-19T19:41:43.318Z,101755.88
2022-10-19T19:44:10.731Z,101756.44
2022-10-19T19:46:38.022Z,101762.22
2022-10-19T19:49:05.406Z,101765.13
2022-10-19T19:51:33.577Z,101766.97
2022-10-19T19:54:00.852Z,101764.81
2022-10-19T19:56:28.992Z,101768.56
2022-10-19T19:58:57.791Z,101769.75
2022-10-19T20:01:26.069Z,101767.97
2022-10-19T20:03:53.391Z,101762.94
2022-10-19T20:06:24.977Z,101764.84
2022-10-19T20:08:54.886Z,101760.69
2022-10-19T20:11:23.625Z,101773.63
2022-10-19T20:13:51.023Z,101779.41
2022-10-19T20:16:26.546Z,101776.09
2022-10-19T20:19:00.655Z,101778.94
2022-10-19T20:21:27.817Z,101779.16
2022-10-19T20:23:55.083Z,101789.84
2022-10-19T20:26:23.932Z,101782.03
2022-10-19T20:28:51.071Z,101791.97
2022-10-19T20:31:18.997Z,101791.31
2022-10-19T20:33:49.720Z,101788.75
2022-10-19T20:36:22.755Z,101788.66
2022-10-19T20:38:56.713Z,101786.69
2022-10-19T20:41:25.670Z,101790.66
2022-10-19T20:43:53.765Z,101790.28
2022-10-19T20:46:23.499Z,101796.56
2022-10-19T20:48:51.351Z,101789.47
2022-10-19T20:51:24.895Z,101795.19
2022-10-19T20:53:55.993Z,101790.84
2022-10-19T20:56:26.138Z,101792.25
2022-10-19T20:58:58.429Z,101791.44
2022-10-19T21:01:26.652Z,101792.75
2022-10-19T21:03:56.257Z,101796.38
2022-10-19T21:06:25.147Z,101789.81
2022-10-19T21:08:52.767Z,101792.91
2022-10-19T21:11:25.962Z,101778.13
2022-10-19T21:13:55.260Z,101780.25
2022-10-19T21:16:23.894Z,101786.84
2022-10-19T21:18:51.004Z,101794.97
2022-10-19T21:21:19.326Z,101791.72
2022-10-19T21:23:49.121Z,101791.72
2022-10-19T21:26:17.305Z,101797.81
2022-10-19T21:28:48.843Z,101796.03
2022-10-19T21:31:17.541Z,101796.41
2022-10-19T21:33:45.517Z,101794.88
2022-10-19T21:36:14.299Z,101792.34
2022-10-19T21:38:42.702Z,101798.16
2022-10-19T21:41:20.858Z,101806.44
2022-10-19T21:43:51.012Z,101797.97
2022-10-19T21:46:19.990Z,101802.81
2022-10-19T21:48:47.629Z,101806.06
2022-10-19T21:51:14.693Z,101808.94
2022-10-19T21:53:41.759Z,101807.22
2022-10-19T21:56:08.909Z,101817.13
2022-10-19T21:58:35.982Z,101801.78
2022-10-19T22:01:07.458Z,101807.13
2022-10-19T22:03:34.622Z,101803.00
2022-10-19T22:06:01.811Z,101804.84
2022-10-19T22:08:28.973Z,101805.03
2022-10-19T22:10:56.441Z,101795.22
2022-10-19T22:13:23.541Z,101797.88
2022-10-19T22:15:50.691Z,101801.41
2022-10-19T22:18:17.747Z,101799.78
2022-10-19T22:20:44.830Z,101792.94
2022-10-19T22:23:11.922Z,101794.09
2022-10-19T22:25:39.072Z,101795.03
2022-10-19T22:28:06.158Z,101795.69
2022-10-19T22:30:33.320Z,101802.75
2022-10-19T22:33:00.438Z,101809.03
2022-10-19T22:35:27.515Z,101804.34
2022-10-19T22:37:54.655Z,101810.34
2022-10-19T22:40:21.996Z,101799.75
2022-10-19T22:42:49.053Z,101806.72
2022-10-19T22:45:16.195Z,101811.28
2022-10-19T22:47:44.272Z,101810.59
2022-10-19T22:50:11.838Z,101811.44
2022-10-19T22:52:39.147Z,101813.47
2022-10-19T22:55:06.592Z,101807.16
2022-10-19T22:57:33.658Z,101814.41
2022-10-19T23:00:00.720Z,101819.84
2022-10-19T23:02:29.182Z,101812.22
2022-10-19T23:04:56.260Z,101816.66
2022-10-19T23:07:23.334Z,101822.19
2022-10-19T23:09:50.437Z,101821.31
2022-10-19T23:12:17.548Z,101815.03
2022-10-19T23:14:44.602Z,101811.69
2022-10-19T23:17:11.781Z,101817.22
2022-10-19T23:19:38.865Z,101824.31
2022-10-19T23:22:05.931Z,101827.38
2022-10-19T23:24:33.003Z,101822.56
2022-10-19T23:27:00.207Z,101821.94
2022-10-19T23:29:27.308Z,101829.44
2022-10-19T23:31:54.390Z,101832.38
2022-10-19T23:34:21.479Z,101825.31
2022-10-19T23:36:48.587Z,101828.16
2022-10-19T23:39:15.763Z,101832.56
2022-10-19T23:41:42.852Z,101836.94
2022-10-19T23:44:10.548Z,101837.88
2022-10-19T23:46:37.675Z,101836.94
2022-10-19T23:49:04.873Z,101839.66
2022-10-19T23:51:32.111Z,101834.53
2022-10-19T23:53:59.406Z,101829.09
2022-10-19T23:56:28.486Z,101829.31
2022-10-19T23:58:56.568Z,101832.56
